Airport ID:KADM
Update Time (UTC):28/01/2022 17:38
Wind Speed (Knots):17
Wind Direction (Magnetic):320
Temperature (°C):10
Dew Point (°C):-3
Humidity (%):40
Altimeter (inHg):30.51
Density Altitude (Feet):
Visibility:10+
Clouds (Hundreds of feet):CLR
Present Weather:
METAR:METAR KADM 281735Z AUTO 32014KT 10SM CLR 10/M03 A3051 RMK AO2

The data displayed is for advisory purposes only and is not to be used for flight planning or operations.